»·PEaware :: N186B KSNA-KCRQ

N186B :: KSNA-KCRQ

FLIGHT INFORMATION

Flight Status: Arrived
Operator: Privately registered:
United States
More flights under this callsign
Pilot: Adam S. (8156)
Aircraft: BEECH AIRCRAFT BARON
(BE58)
More flights by this aircraft type
Origin: KSNA John Wayne-Orange Co
United States
Destination: KCRQ McClellan-Palomar
United States
More flights between these airports :: More routes between these airports
Route:
File this flight plan on PilotEdge
Remarks:
Altitude:
(Current/Filed)
3,500ft
Speed:
(Current/Filed)
180kts
Departed: 24-Jan-16 06:38 PM
Arrived: 24-Jan-16 06:56 PM
Distance/Time
Traveled:
44nm/0:18
Distance/Time
To Go:
Arrived

Flight Plot

Page will automatically refresh every two minutes.


Map Options




Map Legend


Flown Route
Filed Route
Departure Airport
Arrival Airport
Navaid (VOR, NDB)
Fix

Horizontal Profiles

Position Reports

Time Latitude Longitude Heading Altitude Ground
Speed
24-Jan-16 17:57 33.671168 -117.873826 26 59ft 0kts
24-Jan-16 17:58 33.671168 -117.873826 26 59ft 0kts
24-Jan-16 17:59 33.671168 -117.873826 26 59ft 0kts
24-Jan-16 18:00 33.671168 -117.873826 26 59ft 0kts
24-Jan-16 18:01 33.671168 -117.873826 26 59ft 0kts
24-Jan-16 18:02 33.671168 -117.873826 26 59ft 0kts
24-Jan-16 18:03 33.671168 -117.873826 26 59ft 0kts
24-Jan-16 18:04 33.671168 -117.873826 26 59ft 0kts
24-Jan-16 18:05 33.671168 -117.873826 26 59ft 0kts
24-Jan-16 18:06 33.671168 -117.873826 26 59ft 0kts
24-Jan-16 18:07 33.671168 -117.873826 26 59ft 0kts
24-Jan-16 18:08 33.671168 -117.873826 26 59ft 0kts
24-Jan-16 18:09 33.671168 -117.873826 26 59ft 0kts
24-Jan-16 18:10 33.671168 -117.873826 26 59ft 0kts
24-Jan-16 18:11 33.671168 -117.873826 26 59ft 0kts
24-Jan-16 18:12 33.671168 -117.873826 26 59ft 0kts
24-Jan-16 18:13 33.671168 -117.873826 26 59ft 0kts
24-Jan-16 18:14 33.671168 -117.873826 26 59ft 0kts
24-Jan-16 18:15 33.671168 -117.873826 26 59ft 0kts
24-Jan-16 18:16 33.671168 -117.873826 26 59ft 0kts
24-Jan-16 18:17 33.671168 -117.873826 26 59ft 0kts
24-Jan-16 18:18 33.671168 -117.873826 26 59ft 0kts
24-Jan-16 18:19 33.671168 -117.873826 26 59ft 0kts
24-Jan-16 18:20 33.671168 -117.873826 26 59ft 0kts
24-Jan-16 18:21 33.671168 -117.873826 26 59ft 0kts
24-Jan-16 18:22 33.671168 -117.873826 26 59ft 0kts
24-Jan-16 18:23 33.671168 -117.873826 26 59ft 0kts
24-Jan-16 18:24 33.671168 -117.873826 26 59ft 0kts
24-Jan-16 18:25 33.671168 -117.873826 26 59ft 0kts
24-Jan-16 18:26 33.671168 -117.873826 26 59ft 0kts
24-Jan-16 18:27 33.674566 -117.871183 28 59ft 38kts
24-Jan-16 18:28 33.681081 -117.867092 46 59ft 15kts
24-Jan-16 18:29 33.681245 -117.866588 124 59ft 0kts
24-Jan-16 18:30 33.681245 -117.866588 124 59ft 0kts
24-Jan-16 18:31 33.681245 -117.866588 124 59ft 0kts
24-Jan-16 18:32 33.680969 -117.865963 133 59ft 12kts
24-Jan-16 18:33 33.660327 -117.877596 172 1184ft 115kts
24-Jan-16 18:34 33.626297 -117.856050 155 2048ft 162kts
24-Jan-16 18:35 33.583840 -117.831933 158 2645ft 173kts
24-Jan-16 18:36 33.559040 -117.779346 118 2779ft 189kts
24-Jan-16 18:37 33.529623 -117.728912 133 3230ft 184kts
24-Jan-16 18:38 33.492755 -117.683824 139 3269ft 194kts
24-Jan-16 18:39 33.453011 -117.640194 140 3267ft 197kts
24-Jan-16 18:40 33.411684 -117.596387 141 3267ft 199kts
24-Jan-16 18:41 33.369892 -117.552593 141 3144ft 205kts
24-Jan-16 18:42 33.326365 -117.507184 141 2771ft 206kts
24-Jan-16 18:43 33.284041 -117.463037 141 2761ft 200kts
24-Jan-16 18:44 33.244254 -117.421629 141 1927ft 170kts
24-Jan-16 18:45 33.217495 -117.384876 116 1065ft 136kts
24-Jan-16 18:46 33.202794 -117.345336 116 1061ft 129kts
24-Jan-16 18:47 33.187267 -117.307206 121 1065ft 126kts
24-Jan-16 18:48 33.167933 -117.277014 149 1061ft 107kts
24-Jan-16 18:49 33.144401 -117.258796 152 1027ft 91kts
24-Jan-16 18:50 33.129560 -117.270967 264 446ft 105kts
24-Jan-16 18:51 33.127326 -117.282828 230 334ft 19kts
24-Jan-16 18:52 33.126950 -117.283358 237 334ft 0kts
24-Jan-16 18:53 33.126351 -117.284382 252 334ft 0kts
24-Jan-16 18:54 33.129523 -117.271405 263 431ft 104kts
24-Jan-16 18:55 33.127107 -117.283134 232 334ft 16kts
24-Jan-16 18:56 33.126950 -117.283358 237 334ft 0kts

Navigation Log

Ident Type
1. KSNA Airport
2. KCRQ Airport